sensor_id;sensor_type;location;lat;lon;timestamp;temperature;humidity
81307;DHT22;70775;50.846;3.224;2024-03-17T00:01:55;10.50;99.90
81307;DHT22;70775;50.846;3.224;2024-03-17T00:04:20;10.50;99.90
81307;DHT22;70775;50.846;3.224;2024-03-17T00:06:47;10.50;99.90
81307;DHT22;70775;50.846;3.224;2024-03-17T00:09:12;10.50;99.90
81307;DHT22;70775;50.846;3.224;2024-03-17T00:11:38;10.40;99.90
81307;DHT22;70775;50.846;3.224;2024-03-17T00:14:05;10.40;99.90
81307;DHT22;70775;50.846;3.224;2024-03-17T00:16:31;10.50;99.90
81307;DHT22;70775;50.846;3.224;2024-03-17T00:18:56;10.40;99.90
81307;DHT22;70775;50.846;3.224;2024-03-17T00:21:22;10.40;99.90
81307;DHT22;70775;50.846;3.224;2024-03-17T00:23:48;10.50;99.90
81307;DHT22;70775;50.846;3.224;2024-03-17T00:26:17;10.50;99.90
81307;DHT22;70775;50.846;3.224;2024-03-17T00:28:45;10.50;99.90
81307;DHT22;70775;50.846;3.224;2024-03-17T00:31:13;10.50;99.90
81307;DHT22;70775;50.846;3.224;2024-03-17T00:33:40;10.50;99.90
81307;DHT22;70775;50.846;3.224;2024-03-17T00:36:06;10.50;99.90
81307;DHT22;70775;50.846;3.224;2024-03-17T00:38:32;10.50;99.90
81307;DHT22;70775;50.846;3.224;2024-03-17T00:40:58;10.50;99.90
81307;DHT22;70775;50.846;3.224;2024-03-17T00:43:24;10.50;99.90
81307;DHT22;70775;50.846;3.224;2024-03-17T00:45:52;10.50;99.90
81307;DHT22;70775;50.846;3.224;2024-03-17T00:48:18;10.60;99.90
81307;DHT22;70775;50.846;3.224;2024-03-17T00:50:44;10.50;99.90
81307;DHT22;70775;50.846;3.224;2024-03-17T00:53:13;10.60;99.90
81307;DHT22;70775;50.846;3.224;2024-03-17T00:55:39;10.60;99.90
81307;DHT22;70775;50.846;3.224;2024-03-17T00:58:05;10.60;99.90
81307;DHT22;70775;50.846;3.224;2024-03-17T01:00:31;10.60;99.90
81307;DHT22;70775;50.846;3.224;2024-03-17T01:02:58;10.60;99.90
81307;DHT22;70775;50.846;3.224;2024-03-17T01:05:24;10.50;99.90
81307;DHT22;70775;50.846;3.224;2024-03-17T01:07:50;10.40;99.90
81307;DHT22;70775;50.846;3.224;2024-03-17T01:10:15;10.30;99.90
81307;DHT22;70775;50.846;3.224;2024-03-17T01:12:41;10.40;99.90
81307;DHT22;70775;50.846;3.224;2024-03-17T01:15:07;10.40;99.90
81307;DHT22;70775;50.846;3.224;2024-03-17T01:17:34;10.30;99.90
81307;DHT22;70775;50.846;3.224;2024-03-17T01:19:59;10.30;99.90
81307;DHT22;70775;50.846;3.224;2024-03-17T01:22:25;10.30;99.90
81307;DHT22;70775;50.846;3.224;2024-03-17T01:24:50;10.40;99.90
81307;DHT22;70775;50.846;3.224;2024-03-17T01:27:16;10.40;99.90
81307;DHT22;70775;50.846;3.224;2024-03-17T01:29:42;10.40;99.90
81307;DHT22;70775;50.846;3.224;2024-03-17T01:32:09;10.40;99.90
81307;DHT22;70775;50.846;3.224;2024-03-17T01:34:36;10.50;99.90
81307;DHT22;70775;50.846;3.224;2024-03-17T01:37:02;10.40;99.90
81307;DHT22;70775;50.846;3.224;2024-03-17T01:39:28;10.40;99.90
81307;DHT22;70775;50.846;3.224;2024-03-17T01:41:53;10.40;99.90
81307;DHT22;70775;50.846;3.224;2024-03-17T01:44:25;10.40;99.90
81307;DHT22;70775;50.846;3.224;2024-03-17T01:46:51;10.30;99.90
81307;DHT22;70775;50.846;3.224;2024-03-17T01:49:17;10.30;99.90
81307;DHT22;70775;50.846;3.224;2024-03-17T01:51:47;10.20;99.90
81307;DHT22;70775;50.846;3.224;2024-03-17T01:54:13;10.30;99.90
81307;DHT22;70775;50.846;3.224;2024-03-17T01:56:40;10.30;99.90
81307;DHT22;70775;50.846;3.224;2024-03-17T01:59:08;10.20;99.90
81307;DHT22;70775;50.846;3.224;2024-03-17T02:01:37;10.20;99.90
81307;DHT22;70775;50.846;3.224;2024-03-17T02:04:05;10.20;99.90
81307;DHT22;70775;50.846;3.224;2024-03-17T02:06:31;10.10;99.90
81307;DHT22;70775;50.846;3.224;2024-03-17T02:08:56;10.10;99.90
81307;DHT22;70775;50.846;3.224;2024-03-17T02:11:32;10.10;99.90
81307;DHT22;70775;50.846;3.224;2024-03-17T02:13:59;10.10;99.90
81307;DHT22;70775;50.846;3.224;2024-03-17T02:16:25;10.00;99.90
81307;DHT22;70775;50.846;3.224;2024-03-17T02:18:57;10.00;99.90
81307;DHT22;70775;50.846;3.224;2024-03-17T02:21:24;9.90;99.90
81307;DHT22;70775;50.846;3.224;2024-03-17T02:23:56;9.90;99.90
81307;DHT22;70775;50.846;3.224;2024-03-17T02:26:23;10.00;99.90
81307;DHT22;70775;50.846;3.224;2024-03-17T02:28:49;10.00;99.90
81307;DHT22;70775;50.846;3.224;2024-03-17T02:31:16;10.00;99.90
81307;DHT22;70775;50.846;3.224;2024-03-17T02:33:43;10.10;99.90
81307;DHT22;70775;50.846;3.224;2024-03-17T02:36:09;10.10;99.90
81307;DHT22;70775;50.846;3.224;2024-03-17T02:38:37;10.10;99.90
81307;DHT22;70775;50.846;3.224;2024-03-17T02:41:21;10.10;99.90
81307;DHT22;70775;50.846;3.224;2024-03-17T02:43:48;10.10;99.90
81307;DHT22;70775;50.846;3.224;2024-03-17T02:46:14;10.00;99.90
81307;DHT22;70775;50.846;3.224;2024-03-17T02:48:41;10.00;99.90
81307;DHT22;70775;50.846;3.224;2024-03-17T02:51:14;10.10;99.90
81307;DHT22;70775;50.846;3.224;2024-03-17T02:53:41;10.10;99.90
81307;DHT22;70775;50.846;3.224;2024-03-17T02:56:08;10.20;99.90
81307;DHT22;70775;50.846;3.224;2024-03-17T02:58:38;10.10;99.90
81307;DHT22;70775;50.846;3.224;2024-03-17T03:01:05;10.10;99.90
81307;DHT22;70775;50.846;3.224;2024-03-17T03:03:31;10.10;99.90
81307;DHT22;70775;50.846;3.224;2024-03-17T03:05:58;10.10;99.90
81307;DHT22;70775;50.846;3.224;2024-03-17T03:08:24;10.00;99.90
81307;DHT22;70775;50.846;3.224;2024-03-17T03:10:50;9.90;99.90
81307;DHT22;70775;50.846;3.224;2024-03-17T03:13:15;9.90;99.90
81307;DHT22;70775;50.846;3.224;2024-03-17T03:15:41;9.90;99.90
81307;DHT22;70775;50.846;3.224;2024-03-17T03:18:07;9.90;99.90
81307;DHT22;70775;50.846;3.224;2024-03-17T03:20:34;10.00;99.90
81307;DHT22;70775;50.846;3.224;2024-03-17T03:22:59;10.00;99.90
81307;DHT22;70775;50.846;3.224;2024-03-17T03:25:26;9.90;99.90
81307;DHT22;70775;50.846;3.224;2024-03-17T03:27:52;9.90;99.90
81307;DHT22;70775;50.846;3.224;2024-03-17T03:30:18;9.90;99.90
81307;DHT22;70775;50.846;3.224;2024-03-17T03:32:46;9.90;99.90
81307;DHT22;70775;50.846;3.224;2024-03-17T03:35:13;9.90;99.90
81307;DHT22;70775;50.846;3.224;2024-03-17T03:37:40;9.90;99.90
81307;DHT22;70775;50.846;3.224;2024-03-17T03:40:07;9.90;99.90
81307;DHT22;70775;50.846;3.224;2024-03-17T03:42:42;9.90;99.90
81307;DHT22;70775;50.846;3.224;2024-03-17T03:45:08;9.90;99.90
81307;DHT22;70775;50.846;3.224;2024-03-17T03:47:35;9.90;99.90
81307;DHT22;70775;50.846;3.224;2024-03-17T03:50:00;9.80;99.90
81307;DHT22;70775;50.846;3.224;2024-03-17T03:52:26;9.80;99.90
81307;DHT22;70775;50.846;3.224;2024-03-17T03:54:51;9.80;99.90
81307;DHT22;70775;50.846;3.224;2024-03-17T03:57:20;9.80;99.90
81307;DHT22;70775;50.846;3.224;2024-03-17T03:59:45;9.80;99.90
81307;DHT22;70775;50.846;3.224;2024-03-17T04:02:11;9.80;99.90
81307;DHT22;70775;50.846;3.224;2024-03-17T04:04:36;9.80;99.90
81307;DHT22;70775;50.846;3.224;2024-03-17T04:07:03;9.80;99.90
81307;DHT22;70775;50.846;3.224;2024-03-17T04:09:29;9.80;99.90
81307;DHT22;70775;50.846;3.224;2024-03-17T04:11:54;9.80;99.90
81307;DHT22;70775;50.846;3.224;2024-03-17T04:14:20;9.80;99.90
81307;DHT22;70775;50.846;3.224;2024-03-17T04:16:45;9.80;99.90
81307;DHT22;70775;50.846;3.224;2024-03-17T04:19:11;9.70;99.90
81307;DHT22;70775;50.846;3.224;2024-03-17T04:21:37;9.70;99.90
81307;DHT22;70775;50.846;3.224;2024-03-17T04:24:02;9.70;99.90
81307;DHT22;70775;50.846;3.224;2024-03-17T04:26:28;9.70;99.90
81307;DHT22;70775;50.846;3.224;2024-03-17T04:28:53;9.70;99.90
81307;DHT22;70775;50.846;3.224;2024-03-17T04:31:19;9.70;99.90
81307;DHT22;70775;50.846;3.224;2024-03-17T04:33:45;9.70;99.90
81307;DHT22;70775;50.846;3.224;2024-03-17T04:36:11;9.70;99.90
81307;DHT22;70775;50.846;3.224;2024-03-17T04:38:37;9.60;99.90
81307;DHT22;70775;50.846;3.224;2024-03-17T04:41:03;9.60;99.90
81307;DHT22;70775;50.846;3.224;2024-03-17T04:43:33;9.60;99.90
81307;DHT22;70775;50.846;3.224;2024-03-17T04:46:00;9.60;99.90
81307;DHT22;70775;50.846;3.224;2024-03-17T04:48:26;9.60;99.90
81307;DHT22;70775;50.846;3.224;2024-03-17T04:50:52;9.60;99.90
81307;DHT22;70775;50.846;3.224;2024-03-17T04:53:18;9.60;99.90
81307;DHT22;70775;50.846;3.224;2024-03-17T04:55:44;9.60;99.90
81307;DHT22;70775;50.846;3.224;2024-03-17T04:58:09;9.60;99.90
81307;DHT22;70775;50.846;3.224;2024-03-17T05:00:36;9.70;99.90
81307;DHT22;70775;50.846;3.224;2024-03-17T05:03:02;9.60;99.90
81307;DHT22;70775;50.846;3.224;2024-03-17T05:05:29;9.60;99.90
81307;DHT22;70775;50.846;3.224;2024-03-17T05:07:55;9.70;99.90
81307;DHT22;70775;50.846;3.224;2024-03-17T05:10:20;9.60;99.90
81307;DHT22;70775;50.846;3.224;2024-03-17T05:12:46;9.70;99.90
81307;DHT22;70775;50.846;3.224;2024-03-17T05:15:13;9.70;99.90
81307;DHT22;70775;50.846;3.224;2024-03-17T05:17:39;9.70;99.90
81307;DHT22;70775;50.846;3.224;2024-03-17T05:20:05;9.70;99.90
81307;DHT22;70775;50.846;3.224;2024-03-17T05:22:31;9.70;99.90
81307;DHT22;70775;50.846;3.224;2024-03-17T05:24:57;9.70;99.90
81307;DHT22;70775;50.846;3.224;2024-03-17T05:27:22;9.80;99.90
81307;DHT22;70775;50.846;3.224;2024-03-17T05:29:48;9.80;99.90
81307;DHT22;70775;50.846;3.224;2024-03-17T05:32:15;9.80;99.90
81307;DHT22;70775;50.846;3.224;2024-03-17T05:34:41;9.80;99.90
81307;DHT22;70775;50.846;3.224;2024-03-17T05:37:08;9.90;99.90
81307;DHT22;70775;50.846;3.224;2024-03-17T05:39:34;9.90;99.90
81307;DHT22;70775;50.846;3.224;2024-03-17T05:41:59;9.90;99.90
81307;DHT22;70775;50.846;3.224;2024-03-17T05:44:25;9.90;99.90
81307;DHT22;70775;50.846;3.224;2024-03-17T05:46:51;9.90;99.90
81307;DHT22;70775;50.846;3.224;2024-03-17T05:49:19;9.90;99.90
81307;DHT22;70775;50.846;3.224;2024-03-17T05:51:46;9.90;99.90
81307;DHT22;70775;50.846;3.224;2024-03-17T05:54:12;9.90;99.90
81307;DHT22;70775;50.846;3.224;2024-03-17T05:56:37;9.90;99.90
81307;DHT22;70775;50.846;3.224;2024-03-17T05:59:04;9.90;99.90
81307;DHT22;70775;50.846;3.224;2024-03-17T06:01:30;9.90;99.90
81307;DHT22;70775;50.846;3.224;2024-03-17T06:03:56;9.90;99.90
81307;DHT22;70775;50.846;3.224;2024-03-17T06:06:22;9.90;99.90
81307;DHT22;70775;50.846;3.224;2024-03-17T06:08:47;10.00;99.90
81307;DHT22;70775;50.846;3.224;2024-03-17T06:11:14;10.00;99.90
81307;DHT22;70775;50.846;3.224;2024-03-17T06:13:40;10.00;99.90
81307;DHT22;70775;50.846;3.224;2024-03-17T06:16:06;10.00;99.90
81307;DHT22;70775;50.846;3.224;2024-03-17T06:18:31;10.10;99.90
81307;DHT22;70775;50.846;3.224;2024-03-17T06:20:57;10.10;99.90
81307;DHT22;70775;50.846;3.224;2024-03-17T06:23:26;10.20;99.90
81307;DHT22;70775;50.846;3.224;2024-03-17T06:25:55;10.20;99.90
81307;DHT22;70775;50.846;3.224;2024-03-17T06:28:21;10.20;99.90
81307;DHT22;70775;50.846;3.224;2024-03-17T06:30:55;10.20;99.90
81307;DHT22;70775;50.846;3.224;2024-03-17T06:33:21;10.20;99.90
81307;DHT22;70775;50.846;3.224;2024-03-17T06:35:47;10.20;99.90
81307;DHT22;70775;50.846;3.224;2024-03-17T06:38:16;10.20;99.90
81307;DHT22;70775;50.846;3.224;2024-03-17T06:40:47;10.20;99.90
81307;DHT22;70775;50.846;3.224;2024-03-17T06:43:13;10.10;99.90
81307;DHT22;70775;50.846;3.224;2024-03-17T06:45:38;10.10;99.90
81307;DHT22;70775;50.846;3.224;2024-03-17T06:48:04;10.10;99.90
81307;DHT22;70775;50.846;3.224;2024-03-17T06:50:30;10.10;99.90
81307;DHT22;70775;50.846;3.224;2024-03-17T06:52:55;10.10;99.90
81307;DHT22;70775;50.846;3.224;2024-03-17T06:55:22;10.10;99.90
81307;DHT22;70775;50.846;3.224;2024-03-17T06:57:47;10.10;99.90
81307;DHT22;70775;50.846;3.224;2024-03-17T07:00:14;10.00;99.90
81307;DHT22;70775;50.846;3.224;2024-03-17T07:02:41;10.00;99.90
81307;DHT22;70775;50.846;3.224;2024-03-17T07:05:14;10.00;99.90
81307;DHT22;70775;50.846;3.224;2024-03-17T07:07:41;10.10;99.90
81307;DHT22;70775;50.846;3.224;2024-03-17T07:10:07;10.10;99.90
81307;DHT22;70775;50.846;3.224;2024-03-17T07:12:34;10.10;99.90
81307;DHT22;70775;50.846;3.224;2024-03-17T07:14:59;10.10;99.90
81307;DHT22;70775;50.846;3.224;2024-03-17T07:17:25;10.10;99.90
81307;DHT22;70775;50.846;3.224;2024-03-17T07:19:51;10.20;99.90
81307;DHT22;70775;50.846;3.224;2024-03-17T07:22:16;10.10;99.90
81307;DHT22;70775;50.846;3.224;2024-03-17T07:24:43;10.20;99.90
81307;DHT22;70775;50.846;3.224;2024-03-17T07:27:10;10.20;99.90
81307;DHT22;70775;50.846;3.224;2024-03-17T07:29:39;10.20;99.90
81307;DHT22;70775;50.846;3.224;2024-03-17T07:32:05;10.20;99.90
81307;DHT22;70775;50.846;3.224;2024-03-17T07:34:31;10.30;99.90
81307;DHT22;70775;50.846;3.224;2024-03-17T07:36:58;10.30;99.90
81307;DHT22;70775;50.846;3.224;2024-03-17T07:39:31;10.30;99.90
81307;DHT22;70775;50.846;3.224;2024-03-17T07:42:00;10.40;99.90
81307;DHT22;70775;50.846;3.224;2024-03-17T07:44:27;10.40;99.90
81307;DHT22;70775;50.846;3.224;2024-03-17T07:46:57;10.40;99.90
81307;DHT22;70775;50.846;3.224;2024-03-17T07:49:22;10.40;99.90
81307;DHT22;70775;50.846;3.224;2024-03-17T07:51:48;10.40;99.90
81307;DHT22;70775;50.846;3.224;2024-03-17T07:54:13;10.40;99.90
81307;DHT22;70775;50.846;3.224;2024-03-17T07:56:39;10.40;99.90
81307;DHT22;70775;50.846;3.224;2024-03-17T07:59:05;10.30;99.90
81307;DHT22;70775;50.846;3.224;2024-03-17T08:01:37;10.30;99.90
81307;DHT22;70775;50.846;3.224;2024-03-17T08:04:04;10.30;99.90
81307;DHT22;70775;50.846;3.224;2024-03-17T08:06:29;10.30;99.90
81307;DHT22;70775;50.846;3.224;2024-03-17T08:08:55;10.30;99.90
81307;DHT22;70775;50.846;3.224;2024-03-17T08:11:21;10.30;99.90
81307;DHT22;70775;50.846;3.224;2024-03-17T08:13:46;10.30;99.90
81307;DHT22;70775;50.846;3.224;2024-03-17T08:16:13;10.30;99.90
81307;DHT22;70775;50.846;3.224;2024-03-17T08:18:39;10.30;99.90
81307;DHT22;70775;50.846;3.224;2024-03-17T08:21:05;10.40;99.90
81307;DHT22;70775;50.846;3.224;2024-03-17T08:23:32;10.40;99.90
81307;DHT22;70775;50.846;3.224;2024-03-17T08:26:00;10.40;99.90
81307;DHT22;70775;50.846;3.224;2024-03-17T08:28:26;10.40;99.90
81307;DHT22;70775;50.846;3.224;2024-03-17T08:30:53;10.40;99.90
81307;DHT22;70775;50.846;3.224;2024-03-17T08:33:20;10.40;99.90
81307;DHT22;70775;50.846;3.224;2024-03-17T08:35:59;10.40;99.90
81307;DHT22;70775;50.846;3.224;2024-03-17T08:38:26;10.40;99.90
81307;DHT22;70775;50.846;3.224;2024-03-17T08:40:54;10.40;99.90
81307;DHT22;70775;50.846;3.224;2024-03-17T08:43:21;10.50;99.90
81307;DHT22;70775;50.846;3.224;2024-03-17T08:46:00;10.50;99.90
81307;DHT22;70775;50.846;3.224;2024-03-17T08:48:32;10.60;99.90
81307;DHT22;70775;50.846;3.224;2024-03-17T08:50:59;10.60;99.90
81307;DHT22;70775;50.846;3.224;2024-03-17T08:53:25;10.60;99.90
81307;DHT22;70775;50.846;3.224;2024-03-17T08:55:52;10.60;99.90
81307;DHT22;70775;50.846;3.224;2024-03-17T08:58:18;10.60;99.90
81307;DHT22;70775;50.846;3.224;2024-03-17T09:00:44;10.70;99.90
81307;DHT22;70775;50.846;3.224;2024-03-17T09:03:10;10.70;99.90
81307;DHT22;70775;50.846;3.224;2024-03-17T09:05:41;10.70;99.90
81307;DHT22;70775;50.846;3.224;2024-03-17T09:08:08;10.60;99.90
81307;DHT22;70775;50.846;3.224;2024-03-17T09:10:41;10.60;99.90
81307;DHT22;70775;50.846;3.224;2024-03-17T09:13:19;10.60;99.90
81307;DHT22;70775;50.846;3.224;2024-03-17T09:15:59;10.70;99.90
81307;DHT22;70775;50.846;3.224;2024-03-17T09:18:29;10.70;99.90
81307;DHT22;70775;50.846;3.224;2024-03-17T09:23:30;10.80;99.90
81307;DHT22;70775;50.846;3.224;2024-03-17T09:26:10;10.80;99.90
81307;DHT22;70775;50.846;3.224;2024-03-17T09:28:37;10.90;99.90
81307;DHT22;70775;50.846;3.224;2024-03-17T09:31:03;10.90;99.90
81307;DHT22;70775;50.846;3.224;2024-03-17T09:33:32;11.00;99.90
81307;DHT22;70775;50.846;3.224;2024-03-17T09:36:03;11.00;99.90
81307;DHT22;70775;50.846;3.224;2024-03-17T09:38:31;11.10;99.90
81307;DHT22;70775;50.846;3.224;2024-03-17T09:40:57;11.00;99.90
81307;DHT22;70775;50.846;3.224;2024-03-17T09:43:25;11.00;99.90
81307;DHT22;70775;50.846;3.224;2024-03-17T09:45:51;11.10;99.90
81307;DHT22;70775;50.846;3.224;2024-03-17T09:48:24;11.00;99.90
81307;DHT22;70775;50.846;3.224;2024-03-17T09:50:52;11.10;99.90
81307;DHT22;70775;50.846;3.224;2024-03-17T09:53:27;11.10;99.90
81307;DHT22;70775;50.846;3.224;2024-03-17T09:55:57;11.20;99.90
81307;DHT22;70775;50.846;3.224;2024-03-17T09:58:23;11.30;99.90
81307;DHT22;70775;50.846;3.224;2024-03-17T10:00:49;11.40;99.90
81307;DHT22;70775;50.846;3.224;2024-03-17T10:06:14;11.50;99.90
81307;DHT22;70775;50.846;3.224;2024-03-17T10:08:41;11.50;99.90
81307;DHT22;70775;50.846;3.224;2024-03-17T10:11:07;11.50;99.90
81307;DHT22;70775;50.846;3.224;2024-03-17T10:13:33;11.60;99.90
81307;DHT22;70775;50.846;3.224;2024-03-17T10:15:59;11.60;99.90
81307;DHT22;70775;50.846;3.224;2024-03-17T10:18:24;11.70;99.90
81307;DHT22;70775;50.846;3.224;2024-03-17T10:20:50;11.80;99.90
81307;DHT22;70775;50.846;3.224;2024-03-17T10:23:20;11.90;99.90
81307;DHT22;70775;50.846;3.224;2024-03-17T10:25:46;12.00;99.90
81307;DHT22;70775;50.846;3.224;2024-03-17T10:28:13;12.00;99.90
81307;DHT22;70775;50.846;3.224;2024-03-17T10:30:39;12.10;99.90
81307;DHT22;70775;50.846;3.224;2024-03-17T10:33:06;12.20;99.90
81307;DHT22;70775;50.846;3.224;2024-03-17T10:35:36;12.20;99.90
81307;DHT22;70775;50.846;3.224;2024-03-17T10:38:06;12.30;99.90
81307;DHT22;70775;50.846;3.224;2024-03-17T10:40:33;12.40;99.90
81307;DHT22;70775;50.846;3.224;2024-03-17T10:43:00;12.50;99.90
81307;DHT22;70775;50.846;3.224;2024-03-17T10:45:27;12.70;99.90
81307;DHT22;70775;50.846;3.224;2024-03-17T10:47:56;12.70;99.90
81307;DHT22;70775;50.846;3.224;2024-03-17T10:50:32;12.80;99.90
81307;DHT22;70775;50.846;3.224;2024-03-17T10:53:02;12.80;99.90
81307;DHT22;70775;50.846;3.224;2024-03-17T10:55:32;12.80;99.90
81307;DHT22;70775;50.846;3.224;2024-03-17T10:58:07;12.90;99.90
81307;DHT22;70775;50.846;3.224;2024-03-17T11:00:37;13.10;99.90
81307;DHT22;70775;50.846;3.224;2024-03-17T11:03:06;13.20;99.90
81307;DHT22;70775;50.846;3.224;2024-03-17T11:05:36;13.20;99.90
81307;DHT22;70775;50.846;3.224;2024-03-17T11:08:03;13.20;99.90
81307;DHT22;70775;50.846;3.224;2024-03-17T11:10:32;13.30;99.90
81307;DHT22;70775;50.846;3.224;2024-03-17T11:12:59;13.60;99.90
81307;DHT22;70775;50.846;3.224;2024-03-17T11:20:56;13.60;99.90
81307;DHT22;70775;50.846;3.224;2024-03-17T11:23:31;13.70;99.90
81307;DHT22;70775;50.846;3.224;2024-03-17T11:25:58;13.90;99.90
81307;DHT22;70775;50.846;3.224;2024-03-17T11:31:38;14.00;99.90
81307;DHT22;70775;50.846;3.224;2024-03-17T11:34:28;14.20;99.90
81307;DHT22;70775;50.846;3.224;2024-03-17T11:36:54;14.30;99.90
81307;DHT22;70775;50.846;3.224;2024-03-17T11:39:20;14.50;99.90
81307;DHT22;70775;50.846;3.224;2024-03-17T11:41:51;14.60;99.90
81307;DHT22;70775;50.846;3.224;2024-03-17T11:47:02;14.50;99.90
81307;DHT22;70775;50.846;3.224;2024-03-17T11:49:39;14.50;99.90
81307;DHT22;70775;50.846;3.224;2024-03-17T11:54:35;14.50;99.90
81307;DHT22;70775;50.846;3.224;2024-03-17T11:57:12;14.50;99.90
81307;DHT22;70775;50.846;3.224;2024-03-17T11:59:38;14.40;99.90
81307;DHT22;70775;50.846;3.224;2024-03-17T12:04:49;14.30;99.90
81307;DHT22;70775;50.846;3.224;2024-03-17T12:07:20;14.20;99.90
81307;DHT22;70775;50.846;3.224;2024-03-17T12:09:51;14.20;99.90
81307;DHT22;70775;50.846;3.224;2024-03-17T12:12:19;14.20;99.90
81307;DHT22;70775;50.846;3.224;2024-03-17T12:14:47;14.30;99.90
81307;DHT22;70775;50.846;3.224;2024-03-17T12:17:24;14.40;99.90
81307;DHT22;70775;50.846;3.224;2024-03-17T12:19:50;14.40;99.90
81307;DHT22;70775;50.846;3.224;2024-03-17T12:22:21;14.50;99.90
81307;DHT22;70775;50.846;3.224;2024-03-17T12:24:49;14.40;99.90
81307;DHT22;70775;50.846;3.224;2024-03-17T12:27:22;14.30;99.90
81307;DHT22;70775;50.846;3.224;2024-03-17T12:29:49;14.40;99.90
81307;DHT22;70775;50.846;3.224;2024-03-17T12:32:17;14.30;99.90
81307;DHT22;70775;50.846;3.224;2024-03-17T12:34:45;14.30;99.90
81307;DHT22;70775;50.846;3.224;2024-03-17T12:37:18;14.30;99.90
81307;DHT22;70775;50.846;3.224;2024-03-17T12:39:44;14.20;99.90
81307;DHT22;70775;50.846;3.224;2024-03-17T12:42:10;14.20;99.90
81307;DHT22;70775;50.846;3.224;2024-03-17T12:44:38;14.20;99.90
81307;DHT22;70775;50.846;3.224;2024-03-17T12:47:14;14.20;99.90
81307;DHT22;70775;50.846;3.224;2024-03-17T12:49:45;14.10;99.90
81307;DHT22;70775;50.846;3.224;2024-03-17T12:52:24;14.10;99.90
81307;DHT22;70775;50.846;3.224;2024-03-17T12:55:00;14.10;99.90
81307;DHT22;70775;50.846;3.224;2024-03-17T12:57:45;14.10;99.90
81307;DHT22;70775;50.846;3.224;2024-03-17T13:00:29;14.30;99.90
81307;DHT22;70775;50.846;3.224;2024-03-17T13:02:58;14.30;99.90
81307;DHT22;70775;50.846;3.224;2024-03-17T13:05:24;14.30;99.90
81307;DHT22;70775;50.846;3.224;2024-03-17T13:07:51;14.20;99.90
81307;DHT22;70775;50.846;3.224;2024-03-17T13:10:17;14.20;99.90
81307;DHT22;70775;50.846;3.224;2024-03-17T13:12:44;14.10;99.90
81307;DHT22;70775;50.846;3.224;2024-03-17T13:15:12;14.10;99.90
81307;DHT22;70775;50.846;3.224;2024-03-17T13:17:38;14.10;99.90
81307;DHT22;70775;50.846;3.224;2024-03-17T13:20:06;14.10;99.90
81307;DHT22;70775;50.846;3.224;2024-03-17T13:22:35;14.10;99.90
81307;DHT22;70775;50.846;3.224;2024-03-17T13:25:03;14.20;99.90
81307;DHT22;70775;50.846;3.224;2024-03-17T13:27:29;14.30;99.90
81307;DHT22;70775;50.846;3.224;2024-03-17T13:29:55;14.20;99.90
81307;DHT22;70775;50.846;3.224;2024-03-17T13:32:20;14.30;99.90
81307;DHT22;70775;50.846;3.224;2024-03-17T13:34:46;14.30;99.90
81307;DHT22;70775;50.846;3.224;2024-03-17T13:37:11;14.30;99.90
81307;DHT22;70775;50.846;3.224;2024-03-17T13:39:37;14.30;99.90
81307;DHT22;70775;50.846;3.224;2024-03-17T13:42:03;14.20;99.90
81307;DHT22;70775;50.846;3.224;2024-03-17T13:44:32;14.20;99.90
81307;DHT22;70775;50.846;3.224;2024-03-17T13:46:59;14.20;99.90
81307;DHT22;70775;50.846;3.224;2024-03-17T13:49:27;14.30;99.90
81307;DHT22;70775;50.846;3.224;2024-03-17T13:51:54;14.30;99.90
81307;DHT22;70775;50.846;3.224;2024-03-17T13:54:19;14.30;99.90
81307;DHT22;70775;50.846;3.224;2024-03-17T13:56:47;14.30;99.90
81307;DHT22;70775;50.846;3.224;2024-03-17T13:59:17;14.20;99.90
81307;DHT22;70775;50.846;3.224;2024-03-17T14:01:43;14.20;99.90
81307;DHT22;70775;50.846;3.224;2024-03-17T14:04:18;14.10;99.90
81307;DHT22;70775;50.846;3.224;2024-03-17T14:06:47;14.10;99.90
81307;DHT22;70775;50.846;3.224;2024-03-17T14:09:16;14.00;99.90
81307;DHT22;70775;50.846;3.224;2024-03-17T14:11:45;14.00;99.90
81307;DHT22;70775;50.846;3.224;2024-03-17T14:14:11;14.00;99.90
81307;DHT22;70775;50.846;3.224;2024-03-17T14:16:37;13.90;99.90
81307;DHT22;70775;50.846;3.224;2024-03-17T14:19:03;13.80;99.90
81307;DHT22;70775;50.846;3.224;2024-03-17T14:21:28;13.80;99.90
81307;DHT22;70775;50.846;3.224;2024-03-17T14:23:55;13.70;99.90
81307;DHT22;70775;50.846;3.224;2024-03-17T14:26:21;13.70;99.90
81307;DHT22;70775;50.846;3.224;2024-03-17T14:28:48;13.80;99.90
81307;DHT22;70775;50.846;3.224;2024-03-17T14:31:16;13.80;99.90
81307;DHT22;70775;50.846;3.224;2024-03-17T14:33:43;13.70;99.90
81307;DHT22;70775;50.846;3.224;2024-03-17T14:36:09;13.70;99.90
81307;DHT22;70775;50.846;3.224;2024-03-17T14:38:35;13.60;99.90
81307;DHT22;70775;50.846;3.224;2024-03-17T14:41:00;13.60;99.90
81307;DHT22;70775;50.846;3.224;2024-03-17T14:43:27;13.60;99.90
81307;DHT22;70775;50.846;3.224;2024-03-17T14:45:52;13.60;99.90
81307;DHT22;70775;50.846;3.224;2024-03-17T14:48:18;13.60;99.90
81307;DHT22;70775;50.846;3.224;2024-03-17T14:50:44;13.50;99.90
81307;DHT22;70775;50.846;3.224;2024-03-17T14:53:10;13.50;99.90
81307;DHT22;70775;50.846;3.224;2024-03-17T14:55:36;13.50;99.90
81307;DHT22;70775;50.846;3.224;2024-03-17T14:58:01;13.60;99.90
81307;DHT22;70775;50.846;3.224;2024-03-17T15:00:28;13.60;99.90
81307;DHT22;70775;50.846;3.224;2024-03-17T15:02:56;13.50;99.90
81307;DHT22;70775;50.846;3.224;2024-03-17T15:05:22;13.50;99.90
81307;DHT22;70775;50.846;3.224;2024-03-17T15:07:49;13.50;99.90
81307;DHT22;70775;50.846;3.224;2024-03-17T15:10:14;13.40;99.90
81307;DHT22;70775;50.846;3.224;2024-03-17T15:12:41;13.40;99.90
81307;DHT22;70775;50.846;3.224;2024-03-17T15:15:07;13.40;99.90
81307;DHT22;70775;50.846;3.224;2024-03-17T15:17:36;13.40;99.90
81307;DHT22;70775;50.846;3.224;2024-03-17T15:20:02;13.40;99.90
81307;DHT22;70775;50.846;3.224;2024-03-17T15:22:39;13.50;99.90
81307;DHT22;70775;50.846;3.224;2024-03-17T15:25:05;13.50;99.90
81307;DHT22;70775;50.846;3.224;2024-03-17T15:27:31;13.40;99.90
81307;DHT22;70775;50.846;3.224;2024-03-17T15:29:56;13.40;99.90
81307;DHT22;70775;50.846;3.224;2024-03-17T15:32:22;13.40;99.90
81307;DHT22;70775;50.846;3.224;2024-03-17T15:34:48;13.40;99.90
81307;DHT22;70775;50.846;3.224;2024-03-17T15:37:14;13.30;99.90
81307;DHT22;70775;50.846;3.224;2024-03-17T15:39:41;13.30;99.90
81307;DHT22;70775;50.846;3.224;2024-03-17T15:42:09;13.30;99.90
81307;DHT22;70775;50.846;3.224;2024-03-17T15:44:38;13.40;99.90
81307;DHT22;70775;50.846;3.224;2024-03-17T15:47:04;13.40;99.90
81307;DHT22;70775;50.846;3.224;2024-03-17T15:49:31;13.40;99.90
81307;DHT22;70775;50.846;3.224;2024-03-17T15:51:56;13.40;99.90
81307;DHT22;70775;50.846;3.224;2024-03-17T15:54:23;13.40;99.90
81307;DHT22;70775;50.846;3.224;2024-03-17T15:56:48;13.30;99.90
81307;DHT22;70775;50.846;3.224;2024-03-17T15:59:14;13.30;99.90